Time;durP1;ratioP1;P1;durP2;ratioP2;P2;SDS_P1;SDS_P2;PMS_P1;PMS_P2;Temp;Humidity;BMP_temperature;BMP_pressure;BME280_temperature;BME280_humidity;BME280_pressure;Samples;Min_cycle;Max_cycle;Signal;HPM_P1;HPM_P2
2022/12/06 00:02:10;;;;;;;48.53;24.23;;;;;;;8.64;100.00;97703.53;4964938;28;20046;-56
2022/12/06 00:04:36;;;;;;;43.28;22.85;;;;;;;8.68;100.00;97698.91;4965509;28;20061;-57
2022/12/06 00:07:03;;;;;;;45.28;23.98;;;;;;;8.68;100.00;97698.91;4965255;28;20133;-57
2022/12/06 00:09:31;;;;;;;45.10;22.60;;;;;;;8.76;100.00;97701.59;4965838;28;20062;-55
2022/12/06 00:11:58;;;;;;;45.05;22.17;;;;;;;8.70;100.00;97680.06;4965143;28;20652;-55
2022/12/06 00:14:26;;;;;;;43.70;22.02;;;;;;;8.78;100.00;97698.50;4965451;28;20058;-57
2022/12/06 00:16:52;;;;;;;42.72;21.90;;;;;;;8.77;100.00;97680.31;4965406;28;20146;-56
2022/12/06 00:19:22;;;;;;;47.00;23.65;;;;;;;8.78;100.00;97681.91;4965270;28;20490;-55
2022/12/06 00:21:49;;;;;;;45.03;23.08;;;;;;;8.69;100.00;97683.97;4965148;28;20510;-55
2022/12/06 00:24:18;;;;;;;45.22;23.27;;;;;;;8.41;100.00;97638.84;4965555;28;20055;-57
2022/12/06 00:26:47;;;;;;;39.40;21.33;;;;;;;8.62;100.00;97678.19;4965263;28;20146;-58
2022/12/06 00:29:17;;;;;;;40.42;21.98;;;;;;;8.41;100.00;97656.19;4963564;28;20142;-55
2022/12/06 00:31:44;;;;;;;42.10;21.60;;;;;;;8.49;100.00;97668.28;4963352;28;20067;-57
2022/12/06 00:34:11;;;;;;;36.90;19.27;;;;;;;8.39;100.00;97657.69;4964568;28;20055;-56
2022/12/06 00:36:40;;;;;;;34.63;18.02;;;;;;;8.45;100.00;97728.09;4968527;28;20130;-57
2022/12/06 00:39:13;;;;;;;35.15;17.98;;;;;;;8.33;100.00;97670.09;4968773;28;20059;-58
2022/12/06 00:41:40;;;;;;;;;;;;;;;8.35;100.00;97662.25;4969301;28;20142;-55
2022/12/06 00:44:07;;;;;;;25.02;14.48;;;;;;;8.11;100.00;97642.84;4968844;28;20415;-56
2022/12/06 00:46:34;;;;;;;33.35;16.63;;;;;;;8.26;100.00;97664.31;4968706;28;20113;-54
2022/12/06 00:49:03;;;;;;;32.08;17.13;;;;;;;8.31;100.00;97672.38;4968474;28;20050;-56
2022/12/06 00:51:32;;;;;;;37.70;17.05;;;;;;;8.33;100.00;97675.63;4968747;28;20074;-55
2022/12/06 00:53:58;;;;;;;30.55;16.90;;;;;;;8.24;100.00;97672.09;4969073;28;20128;-57
2022/12/06 00:56:25;;;;;;;30.48;16.20;;;;;;;8.24;100.00;97669.34;4968579;28;20082;-57
2022/12/06 00:58:53;;;;;;;31.02;16.42;;;;;;;8.25;100.00;97662.72;4968665;28;20050;-55
2022/12/06 01:01:22;;;;;;;32.25;17.88;;;;;;;8.33;100.00;97664.56;4968623;28;20050;-54
2022/12/06 01:03:52;;;;;;;35.40;18.80;;;;;;;8.27;100.00;97644.66;4968613;28;20410;-55
2022/12/06 01:06:22;;;;;;;44.83;20.92;;;;;;;8.37;100.00;97660.78;4967005;28;20154;-56
2022/12/06 01:08:49;;;;;;;44.05;21.90;;;;;;;8.47;100.00;97656.78;4968389;28;20141;-57
2022/12/06 01:11:15;;;;;;;50.53;23.63;;;;;;;8.47;100.00;97662.31;4968170;28;20239;-58
2022/12/06 01:13:42;;;;;;;51.42;24.52;;;;;;;8.37;100.00;97654.44;4968048;28;20054;-55
2022/12/06 01:16:15;;;;;;;37.78;20.60;;;;;;;8.43;100.00;97647.56;4967938;28;20097;-57
2022/12/06 01:18:43;;;;;;;36.42;19.38;;;;;;;8.45;100.00;97653.56;4968022;28;20092;-57
2022/12/06 01:21:16;;;;;;;40.40;20.52;;;;;;;8.31;100.00;97625.47;4966620;28;20241;-57
2022/12/06 01:23:44;;;;;;;38.33;20.77;;;;;;;8.38;100.00;97645.00;4966684;28;20121;-57
2022/12/06 01:26:16;;;;;;;46.83;22.70;;;;;;;8.40;100.00;97643.53;4967674;28;20050;-57
2022/12/06 01:28:44;;;;;;;46.45;21.80;;;;;;;8.48;100.00;97631.59;4967917;28;20051;-57
2022/12/06 01:31:11;;;;;;;44.40;21.50;;;;;;;8.46;100.00;97635.81;4967435;28;20059;-57
2022/12/06 01:33:38;;;;;;;43.85;21.67;;;;;;;8.51;100.00;97635.63;4967728;28;20066;-57
2022/12/06 01:36:05;;;;;;;43.03;22.63;;;;;;;8.47;100.00;97629.19;4968034;28;20142;-57
2022/12/06 01:38:32;;;;;;;43.47;21.55;;;;;;;8.45;100.00;97634.22;4966202;28;20881;-57
2022/12/06 01:40:58;;;;;;;41.80;20.58;;;;;;;8.50;100.00;97625.72;4966455;28;20661;-55
2022/12/06 01:43:40;;;;;;;38.17;21.80;;;;;;;8.46;100.00;97630.31;4967735;28;20565;-56
2022/12/06 01:46:38;;;;;;;46.67;22.67;;;;;;;8.48;100.00;97616.97;4966658;28;20137;-54
2022/12/06 01:49:11;;;;;;;42.58;21.23;;;;;;;8.36;100.00;97615.00;4967362;28;20514;-55
2022/12/06 01:51:41;;;;;;;42.70;20.67;;;;;;;8.20;100.00;97611.25;4967171;28;20073;-57
2022/12/06 01:54:10;;;;;;;40.88;21.83;;;;;;;7.93;100.00;97566.91;4966249;28;20059;-55
2022/12/06 01:56:38;;;;;;;41.38;21.00;;;;;;;8.10;100.00;97616.38;4967100;28;20058;-57
2022/12/06 01:59:06;;;;;;;38.75;19.02;;;;;;;8.02;100.00;97614.53;4967378;28;20161;-57
2022/12/06 02:01:36;;;;;;;35.83;19.25;;;;;;;8.06;100.00;97621.00;4967042;28;20055;-55
2022/12/06 02:04:03;;;;;;;29.63;16.95;;;;;;;8.08;100.00;97619.50;4967144;28;20442;-54
2022/12/06 02:06:33;;;;;;;37.42;17.63;;;;;;;8.08;100.00;97626.97;4965823;28;20579;-57
2022/12/06 02:09:03;;;;;;;37.90;19.35;;;;;;;8.15;100.00;97618.94;4966921;28;20539;-58
2022/12/06 02:11:29;;;;;;;36.63;18.52;;;;;;;8.07;100.00;97617.06;4967045;28;20510;-57
2022/12/06 02:14:04;;;;;;;36.25;18.13;;;;;;;8.06;100.00;97615.47;4966725;28;20054;-56
2022/12/06 02:17:12;;;;;;;35.60;18.98;;;;;;;8.08;100.00;97619.50;4965709;28;20074;-57
2022/12/06 02:19:42;;;;;;;32.30;16.40;;;;;;;8.16;100.00;97615.03;4971434;28;20066;-54
2022/12/06 02:22:39;;;;;;;37.90;19.52;;;;;;;8.17;100.00;97617.44;4967173;28;20082;-55
2022/12/06 02:25:47;;;;;;;41.58;19.38;;;;;;;8.14;100.00;97612.59;4966861;28;20133;-57
2022/12/06 02:28:36;;;;;;;39.30;20.13;;;;;;;8.15;100.00;97613.41;4967163;28;20082;-56
2022/12/06 02:31:13;;;;;;;40.97;21.42;;;;;;;8.19;100.00;97614.38;4966732;28;20071;-58
2022/12/06 02:33:49;;;;;;;41.03;20.30;;;;;;;8.21;100.00;97609.28;4967044;28;20421;-55
2022/12/06 02:36:16;;;;;;;37.33;19.90;;;;;;;8.17;100.00;97600.09;4966567;28;20097;-57
2022/12/06 02:38:48;;;;;;;41.55;20.98;;;;;;;7.93;100.00;97572.44;4966798;28;20057;-57
2022/12/06 02:41:26;;;;;;;36.65;19.30;;;;;;;8.16;100.00;97581.91;4964760;28;20055;-57
2022/12/06 02:43:58;;;;;;;39.50;19.73;;;;;;;8.33;100.00;97603.84;4966539;28;20117;-57
2022/12/06 02:46:28;;;;;;;43.38;20.67;;;;;;;8.32;100.00;97600.28;4965310;28;20093;-58
2022/12/06 02:48:58;;;;;;;45.90;23.42;;;;;;;8.27;100.00;97586.69;4966731;28;20057;-56
2022/12/06 02:51:28;;;;;;;58.67;26.55;;;;;;;8.37;100.00;97600.06;4966916;28;20058;-55
2022/12/06 02:53:58;;;;;;;67.18;29.27;;;;;;;7.87;100.00;97524.97;4957244;28;20517;-57
2022/12/06 02:56:25;;;;;;;48.45;25.27;;;;;;;8.38;100.00;97600.84;4946905;28;20114;-57
2022/12/06 02:58:52;;;;;;;49.47;23.42;;;;;;;8.41;100.00;97600.19;4946804;28;20086;-55
2022/12/06 03:01:25;;;;;;;49.63;24.05;;;;;;;8.16;100.00;97563.41;4947030;28;20490;-57
2022/12/06 03:04:47;;;;;;;46.47;24.05;;;;;;;8.37;100.00;97599.25;4946858;28;20110;-56
2022/12/06 03:07:43;;;;;;;43.17;22.75;;;;;;;8.29;100.00;97602.91;4982296;28;20110;-57
2022/12/06 03:10:21;;;;;;;45.03;22.08;;;;;;;8.28;100.00;97596.59;4947050;28;20071;-57
2022/12/06 03:13:00;;;;;;;48.97;24.13;;;;;;;8.30;100.00;97604.53;4945090;29;20137;-57
2022/12/06 03:15:56;;;;;;;41.60;21.15;;;;;;;8.26;100.00;97603.59;4945180;29;20051;-55
2022/12/06 03:18:48;;;;;;;37.50;18.50;;;;;;;8.12;100.00;97605.81;4949767;28;20055;-55
2022/12/06 03:21:24;;;;;;;40.60;19.08;;;;;;;7.85;100.00;97548.50;4946924;28;20096;-55
2022/12/06 03:23:51;;;;;;;35.58;19.48;;;;;;;7.66;100.00;97508.47;4946499;28;20121;-56
2022/12/06 03:26:22;;;;;;;40.55;19.00;;;;;;;8.24;100.00;97603.13;4946545;28;20134;-57
2022/12/06 03:28:52;;;;;;;35.65;19.27;;;;;;;8.28;100.00;97604.06;4947046;28;20062;-54
2022/12/06 03:31:21;;;;;;;42.08;18.48;;;;;;;8.05;100.00;97580.72;4946470;28;20498;-56
2022/12/06 03:33:53;;;;;;;48.03;24.38;;;;;;;8.20;100.00;97604.94;4946807;28;20775;-55
2022/12/06 03:36:22;;;;;;;56.17;27.25;;;;;;;8.21;100.00;97614.81;4946444;28;20526;-55
2022/12/06 03:38:53;;;;;;;58.40;25.85;;;;;;;7.85;100.00;97538.28;4946452;28;20507;-57
2022/12/06 03:41:24;;;;;;;48.90;22.77;;;;;;;8.21;100.00;97601.00;4944712;29;20082;-57
2022/12/06 03:43:51;;;;;;;52.15;22.75;;;;;;;8.22;100.00;97597.91;4946238;28;20054;-58
2022/12/06 03:46:23;;;;;;;37.58;21.08;;;;;;;8.22;100.00;97591.59;4945949;28;20051;-55
2022/12/06 03:48:56;;;;;;;41.33;21.53;;;;;;;8.22;100.00;97591.59;4946172;28;20058;-57
2022/12/06 03:51:28;;;;;;;46.33;22.10;;;;;;;8.25;100.00;97596.47;4946402;29;20559;-55
2022/12/06 03:53:58;;;;;;;41.55;21.00;;;;;;;8.29;100.00;97591.88;4946332;28;20055;-57
2022/12/06 03:56:25;;;;;;;52.15;25.45;;;;;;;8.33;100.00;97592.81;4945977;28;20114;-55
2022/12/06 03:58:52;;;;;;;55.45;25.77;;;;;;;8.31;100.00;97595.91;4946090;28;20051;-55
2022/12/06 04:01:19;;;;;;;71.10;35.05;;;;;;;8.31;100.00;97589.56;4945364;28;20102;-57
2022/12/06 04:03:46;;;;;;;97.53;44.25;;;;;;;8.31;100.00;97589.56;4946054;28;20457;-57
2022/12/06 04:06:13;;;;;;;114.97;52.55;;;;;;;8.31;100.00;97590.38;4946008;28;20130;-57
2022/12/06 04:08:39;;;;;;;131.93;58.28;;;;;;;8.27;100.00;97610.72;4945931;28;20537;-56
2022/12/06 04:11:06;;;;;;;69.68;31.65;;;;;;;8.21;100.00;97589.97;4950013;28;20130;-57
2022/12/06 04:13:34;;;;;;;52.58;27.42;;;;;;;8.31;100.00;97584.06;4949992;28;20051;-55
2022/12/06 04:16:01;;;;;;;45.22;23.30;;;;;;;7.92;100.00;97546.00;4950006;28;20047;-58
2022/12/06 04:18:28;;;;;;;39.05;19.90;;;;;;;7.96;100.00;97552.44;4948446;29;20510;-55
2022/12/06 04:23:50;;;;;;;42.85;21.48;;;;;;;8.29;100.00;97581.63;4949714;29;20106;-58
2022/12/06 04:26:20;;;;;;;35.33;18.10;;;;;;;8.30;100.00;97583.25;4949954;28;20348;-56
2022/12/06 04:39:49;;;;;;;77.75;41.20;;;;;;;8.19;100.00;97581.25;4949779;28;20485;-55
2022/12/06 04:45:03;;;;;;;71.22;37.45;;;;;;;8.17;100.00;97583.53;4949017;28;20055;-58
2022/12/06 04:47:30;;;;;;;61.67;32.53;;;;;;;8.17;100.00;97583.53;4948905;28;20660;-56
2022/12/06 04:49:57;;;;;;;47.65;26.48;;;;;;;8.22;100.00;97586.09;4949466;28;20181;-56
2022/12/06 04:52:24;;;;;;;136.07;62.00;;;;;;;8.21;100.00;97578.94;4949128;28;20633;-57
2022/12/06 04:54:50;;;;;;;105.32;48.75;;;;;;;8.05;100.00;97547.63;4949189;28;20106;-55
2022/12/06 04:57:17;;;;;;;97.50;42.08;;;;;;;8.28;100.00;97584.75;4949258;28;20133;-55
2022/12/06 04:59:45;;;;;;;141.32;53.40;;;;;;;7.44;100.00;97462.00;4947734;29;20498;-55
2022/12/06 05:02:14;;;;;;;77.80;32.53;;;;;;;8.29;100.00;97581.63;4948959;28;20051;-57
2022/12/06 05:04:41;;;;;;;61.25;26.70;;;;;;;8.30;100.00;97582.47;4949167;28;20115;-64
2022/12/06 05:07:10;;;;;;;61.63;29.42;;;;;;;7.92;100.00;97515.66;4948721;28;20134;-55
2022/12/06 05:09:37;;;;;;;48.63;26.42;;;;;;;8.23;100.00;97582.19;4963472;28;20055;-57
2022/12/06 05:12:03;;;;;;;44.00;22.98;;;;;;;8.23;100.00;97577.50;4948543;28;20481;-57
2022/12/06 05:14:30;;;;;;;45.90;23.50;;;;;;;7.35;100.00;97441.97;4948939;28;20134;-57
2022/12/06 05:16:57;;;;;;;41.42;19.98;;;;;;;8.18;100.00;97565.81;4948542;28;20150;-57
2022/12/06 05:19:24;;;;;;;40.00;20.52;;;;;;;7.73;100.00;97492.16;4949069;28;20557;-57
2022/12/06 05:21:51;;;;;;;49.55;22.13;;;;;;;8.29;100.00;97583.59;4948745;28;20345;-57
2022/12/06 05:24:17;;;;;;;44.88;22.88;;;;;;;8.24;100.00;97579.09;4947269;29;20578;-57
2022/12/06 05:26:44;;;;;;;46.47;23.65;;;;;;;8.20;100.00;97580.09;4948569;28;20055;-56
2022/12/06 05:29:11;;;;;;;55.55;24.88;;;;;;;8.24;100.00;97575.53;4948466;28;20055;-55
2022/12/06 05:31:37;;;;;;;62.50;26.17;;;;;;;8.24;100.00;97581.03;4948599;28;20055;-56
2022/12/06 05:34:04;;;;;;;86.53;42.92;;;;;;;8.32;100.00;97580.13;4948663;28;20490;-56
2022/12/06 05:36:30;;;;;;;90.78;44.22;;;;;;;8.34;100.00;97569.56;4948706;28;20145;-56
2022/12/06 05:38:57;;;;;;;54.67;26.38;;;;;;;7.71;100.00;97527.53;4948682;28;20106;-53
2022/12/06 05:41:24;;;;;;;50.75;24.33;;;;;;;7.72;100.00;97512.63;4948819;28;20482;-53
2022/12/06 05:43:51;;;;;;;100.93;59.15;;;;;;;8.17;100.00;97578.03;4948734;28;20502;-55
2022/12/06 05:46:17;;;;;;;91.55;47.95;;;;;;;8.24;100.00;97578.28;4948078;28;20146;-55
2022/12/06 05:48:44;;;;;;;64.10;31.73;;;;;;;8.28;100.00;97584.75;4948350;28;20090;-54
2022/12/06 05:51:11;;;;;;;58.20;28.77;;;;;;;7.77;100.00;97508.03;4948593;28;20125;-54
2022/12/06 05:53:39;;;;;;;59.72;27.50;;;;;;;8.36;100.00;97594.88;4948009;28;20137;-56
2022/12/06 05:56:09;;;;;;;56.50;27.90;;;;;;;8.31;100.00;97586.81;4939615;28;20134;-55
2022/12/06 05:58:36;;;;;;;56.38;28.02;;;;;;;8.33;100.00;97587.28;4929382;29;20134;-54
2022/12/06 06:01:05;;;;;;;62.58;27.20;;;;;;;8.34;100.00;97583.38;4928497;29;20095;-55
2022/12/06 06:03:32;;;;;;;56.80;27.25;;;;;;;8.32;100.00;97580.13;4928589;29;20135;-55
2022/12/06 06:06:00;;;;;;;58.88;28.52;;;;;;;8.24;100.00;97567.25;4928744;29;20055;-56
2022/12/06 06:08:28;;;;;;;54.80;25.58;;;;;;;7.81;100.00;97586.19;4928760;29;20142;-54
2022/12/06 06:10:55;;;;;;;55.42;25.85;;;;;;;7.46;100.00;97567.19;4928671;29;20051;-57
2022/12/06 06:13:21;;;;;;;54.88;25.95;;;;;;;7.73;100.00;97585.91;4928599;29;20120;-54
2022/12/06 06:15:48;;;;;;;53.92;24.63;;;;;;;7.51;100.00;97533.91;4928812;29;20051;-55
2022/12/06 06:18:16;;;;;;;55.53;28.25;;;;;;;8.04;100.00;97590.16;4942915;29;20051;-55
2022/12/06 06:20:56;;;;;;;59.30;32.45;;;;;;;8.16;100.00;97590.19;4928573;29;20111;-55
2022/12/06 06:23:23;;;;;;;53.80;26.70;;;;;;;7.85;100.00;97518.16;4928648;29;20103;-56
2022/12/06 06:25:50;;;;;;;52.78;26.48;;;;;;;8.30;100.00;97601.78;4928614;29;20139;-54
2022/12/06 06:28:17;;;;;;;59.03;27.58;;;;;;;8.29;100.00;97602.91;4928329;28;20134;-55
2022/12/06 06:30:44;;;;;;;52.50;27.20;;;;;;;8.39;100.00;97591.44;4928366;28;20047;-56
2022/12/06 06:33:11;;;;;;;44.20;24.23;;;;;;;8.20;100.00;97549.75;4927879;29;20055;-53
2022/12/06 06:35:38;;;;;;;47.25;23.50;;;;;;;8.51;100.00;97611.59;4958279;28;20278;-54
2022/12/06 06:38:06;;;;;;;60.42;30.42;;;;;;;8.61;100.00;97594.56;4928361;29;20083;-56
2022/12/06 06:40:33;;;;;;;61.97;30.23;;;;;;;8.35;100.00;97551.84;4927807;29;20059;-55
2022/12/06 06:43:16;;;;;;;55.72;29.00;;;;;;;8.44;100.00;97563.59;4927980;29;20107;-55
2022/12/06 06:45:51;;;;;;;56.28;27.40;;;;;;;8.60;100.00;97587.41;4926994;29;20130;-55
2022/12/06 06:48:18;;;;;;;57.25;26.55;;;;;;;8.18;100.00;97513.41;4927919;29;20139;-58
2022/12/06 06:50:46;;;;;;;53.83;27.02;;;;;;;8.65;100.00;97602.94;4927729;29;20115;-55
2022/12/06 06:53:14;;;;;;;53.13;26.55;;;;;;;8.70;100.00;97591.69;4928042;29;20463;-55
2022/12/06 06:55:45;;;;;;;51.38;24.13;;;;;;;8.69;100.00;97590.09;4926392;29;20146;-54
2022/12/06 06:58:13;;;;;;;58.28;25.20;;;;;;;8.67;100.00;97592.38;4926263;29;20404;-56
2022/12/06 07:00:41;;;;;;;51.88;24.27;;;;;;;8.70;100.00;97586.16;4931489;29;20182;-55
2022/12/06 07:03:15;;;;;;;56.90;28.02;;;;;;;8.23;100.00;97491.94;4938520;28;20130;-57
2022/12/06 07:05:45;;;;;;;52.78;24.73;;;;;;;8.82;100.00;97584.19;4929722;29;20138;-58
2022/12/06 07:08:11;;;;;;;57.85;25.02;;;;;;;8.69;100.00;97582.59;4942735;28;20142;-59
2022/12/06 07:10:38;;;;;;;50.70;24.45;;;;;;;8.74;100.00;97565.00;4944111;28;20051;-57
2022/12/06 07:13:05;;;;;;;48.50;21.73;;;;;;;8.85;99.90;97585.47;4943479;29;20432;-57
2022/12/06 07:15:32;;;;;;;44.83;21.77;;;;;;;8.83;100.00;97585.03;4943115;28;20087;-56
2022/12/06 07:17:58;;;;;;;53.72;26.95;;;;;;;8.80;100.00;97585.72;4942420;29;20154;-58
2022/12/06 07:20:25;;;;;;;50.70;25.55;;;;;;;8.82;100.00;97577.91;4943669;28;20138;-58
2022/12/06 07:22:51;;;;;;;55.30;25.92;;;;;;;8.79;100.00;97601.47;4930491;28;20547;-57
2022/12/06 07:25:18;;;;;;;56.80;27.25;;;;;;;8.42;100.00;97535.53;4941953;29;20074;-60
2022/12/06 07:27:44;;;;;;;59.53;27.33;;;;;;;8.49;100.00;97524.72;4942707;29;20535;-56
2022/12/06 07:30:12;;;;;;;53.22;24.67;;;;;;;8.90;100.00;97585.22;4941757;29;20127;-55
2022/12/06 07:32:43;;;;;;;53.53;26.15;;;;;;;8.46;100.00;97503.31;4943577;28;20146;-57
2022/12/06 07:35:10;;;;;;;57.00;25.90;;;;;;;8.99;100.00;97583.16;4942562;29;20102;-55
2022/12/06 07:37:36;;;;;;;52.45;25.80;;;;;;;8.87;100.00;97580.41;4943467;28;20051;-56
2022/12/06 07:40:04;;;;;;;50.60;23.90;;;;;;;8.73;100.00;97578.00;4958136;28;20051;-58
2022/12/06 07:45:15;;;;;;;54.30;26.70;;;;;;;9.05;100.00;97576.25;4943950;28;20062;-61
2022/12/06 07:47:43;;;;;;;57.97;26.33;;;;;;;9.20;99.16;97578.28;4942886;28;20094;-56
2022/12/06 07:50:18;;;;;;;52.50;25.35;;;;;;;9.27;97.78;97584.03;4943284;28;20154;-61
2022/12/06 07:52:47;;;;;;;58.53;26.27;;;;;;;9.35;97.09;97580.34;4942652;28;20050;-62
2022/12/06 07:55:15;;;;;;;56.22;25.15;;;;;;;9.43;96.69;97576.63;4940229;29;20577;-60
2022/12/06 07:57:42;;;;;;;54.42;27.00;;;;;;;9.25;96.99;97531.06;4943036;28;20102;-56
2022/12/06 08:00:15;;;;;;;58.00;28.27;;;;;;;9.80;95.58;97569.81;4942472;28;20454;-62
2022/12/06 08:02:42;;;;;;;58.97;25.92;;;;;;;9.80;93.64;97575.34;4943751;28;20094;-58
2022/12/06 08:05:09;;;;;;;58.53;27.33;;;;;;;9.94;93.01;97581.28;4942951;28;20043;-56
2022/12/06 08:07:36;;;;;;;55.60;27.45;;;;;;;9.97;92.78;97591.66;4943008;28;20060;-57
2022/12/06 08:10:04;;;;;;;50.45;26.30;;;;;;;10.03;92.84;97573.63;4942402;29;20474;-53
2022/12/06 08:12:31;;;;;;;59.35;29.02;;;;;;;10.13;92.20;97567.59;4944217;28;20126;-58
2022/12/06 08:14:58;;;;;;;56.45;29.88;;;;;;;10.11;92.14;97558.88;4944011;28;20051;-58
2022/12/06 08:17:26;;;;;;;53.88;27.98;;;;;;;10.32;90.53;97559.41;4943370;28;20051;-57
2022/12/06 08:19:53;;;;;;;50.85;25.25;;;;;;;10.27;89.74;97562.47;4943190;29;20059;-57
2022/12/06 08:22:20;;;;;;;45.95;24.30;;;;;;;10.27;90.35;97573.53;4944072;28;20063;-59
2022/12/06 08:24:47;;;;;;;46.08;24.95;;;;;;;9.67;90.32;97452.09;4943136;29;20591;-58
2022/12/06 08:27:13;;;;;;;55.33;24.30;;;;;;;9.96;90.31;97562.34;4944758;28;20070;-58
2022/12/06 08:29:40;;;;;;;50.92;24.02;;;;;;;9.92;91.32;97555.94;4945083;28;20054;-57
2022/12/06 08:32:07;;;;;;;63.30;29.20;;;;;;;10.27;90.72;97551.38;4944004;28;20533;-56
2022/12/06 08:34:33;;;;;;;53.13;28.50;;;;;;;10.49;90.16;97559.09;4945065;28;20051;-57
2022/12/06 08:37:00;;;;;;;60.67;26.88;;;;;;;10.59;89.88;97558.53;4943050;29;20051;-60
2022/12/06 08:39:29;;;;;;;42.30;21.70;;;;;;;10.60;87.25;97557.38;4944544;28;20052;-57
2022/12/06 08:41:58;;;;;;;48.72;21.77;;;;;;;10.48;87.65;97543.59;4942373;29;20089;-55
2022/12/06 08:44:26;;;;;;;48.53;22.55;;;;;;;10.50;86.97;97537.72;4944650;29;20509;-60
2022/12/06 08:46:54;;;;;;;42.17;21.08;;;;;;;10.48;86.56;97529.75;4944157;28;20149;-56
2022/12/06 08:49:22;;;;;;;41.15;20.33;;;;;;;10.29;87.78;97537.97;4944485;28;20310;-58
2022/12/06 08:51:50;;;;;;;42.15;22.27;;;;;;;10.47;87.11;97539.25;4944247;28;20051;-62
2022/12/06 08:54:19;;;;;;;41.00;20.80;;;;;;;10.44;87.22;97506.72;4944556;28;20438;-61
2022/12/06 08:56:46;;;;;;;30.05;16.85;;;;;;;10.67;85.89;97527.06;4942945;28;20052;-59
2022/12/06 08:59:14;;;;;;;26.67;15.55;;;;;;;10.59;85.29;97525.28;4926332;29;20071;-61
2022/12/06 09:01:41;;;;;;;28.90;17.05;;;;;;;10.59;85.07;97522.50;4929066;29;20551;-57
2022/12/06 09:04:09;;;;;;;32.00;17.27;;;;;;;10.76;84.44;97512.22;4945364;29;20051;-57
2022/12/06 09:06:38;;;;;;;28.38;16.42;;;;;;;10.16;83.50;97413.84;4946630;29;20055;-59
2022/12/06 09:09:06;;;;;;;26.10;16.33;;;;;;;11.02;82.85;97512.44;4947114;28;20070;-57
2022/12/06 09:11:33;;;;;;;28.05;16.17;;;;;;;10.56;82.87;97476.16;4944988;29;20097;-56
2022/12/06 09:14:00;;;;;;;30.35;16.30;;;;;;;10.97;82.55;97516.28;4944884;29;20146;-58
2022/12/06 09:16:26;;;;;;;30.05;17.17;;;;;;;11.00;83.03;97507.25;4946790;28;20047;-57
2022/12/06 09:18:53;;;;;;;33.78;17.38;;;;;;;10.90;82.39;97484.84;4946772;28;20138;-56
2022/12/06 09:21:22;;;;;;;28.35;15.05;;;;;;;10.67;81.45;97449.50;4946215;28;20158;-57
2022/12/06 09:23:50;;;;;;;23.90;13.40;;;;;;;11.12;79.35;97498.00;4946540;28;20070;-56
2022/12/06 09:26:16;;;;;;;22.92;13.23;;;;;;;10.86;77.74;97428.53;4946573;28;20491;-57
2022/12/06 09:28:48;;;;;;;21.60;12.85;;;;;;;10.85;77.94;97449.09;4946272;29;20122;-59
2022/12/06 09:31:15;;;;;;;22.83;13.32;;;;;;;11.22;78.13;97481.63;4946195;28;20055;-55
2022/12/06 09:33:42;;;;;;;24.42;12.82;;;;;;;10.99;77.35;97432.75;4945376;28;20059;-59
2022/12/06 09:36:25;;;;;;;20.73;12.57;;;;;;;11.42;75.49;97471.31;4944888;28;20079;-56
2022/12/06 09:39:10;;;;;;;18.85;11.48;;;;;;;11.35;74.17;97468.41;4945923;29;20682;-58
2022/12/06 09:42:03;;;;;;;21.58;12.82;;;;;;;8.92;74.16;97091.19;4944910;28;20062;-56
2022/12/06 09:44:32;;;;;;;24.83;14.20;;;;;;;11.04;74.35;97463.78;4927419;29;20056;-58
2022/12/06 09:47:36;;;;;;;23.73;13.70;;;;;;;11.01;75.09;97458.16;4927557;29;20507;-56
2022/12/06 09:50:23;;;;;;;27.05;14.48;;;;;;;10.95;75.72;97456.84;4926728;29;20056;-57
2022/12/06 09:53:07;;;;;;;21.08;13.25;;;;;;;10.79;75.49;97456.09;4934238;29;20149;-55
2022/12/06 09:55:37;;;;;;;23.73;13.02;;;;;;;10.72;74.05;97456.72;4943471;29;20141;-62
2022/12/06 09:58:39;;;;;;;22.48;13.10;;;;;;;10.66;74.97;97452.63;4944131;29;20489;-61
2022/12/06 10:01:30;;;;;;;22.45;12.93;;;;;;;10.77;76.48;97452.84;4939846;29;20565;-62
2022/12/06 10:04:21;;;;;;;23.30;11.63;;;;;;;10.65;74.09;97439.94;4942750;29;20055;-62
2022/12/06 10:06:48;;;;;;;17.98;10.73;;;;;;;10.54;74.37;97428.59;4943841;28;20082;-58
2022/12/06 10:09:17;;;;;;;15.73;10.52;;;;;;;10.54;74.79;97433.38;4947128;28;20154;-66
2022/12/06 10:11:56;;;;;;;18.40;11.63;;;;;;;10.52;73.70;97442.03;4945687;29;20070;-56
2022/12/06 10:14:33;;;;;;;20.10;11.40;;;;;;;10.32;75.04;97434.03;4947437;28;20509;-58
2022/12/06 10:17:27;;;;;;;16.77;11.68;;;;;;;10.25;74.72;97431.06;4945890;28;20134;-56
2022/12/06 10:19:59;;;;;;;21.98;12.32;;;;;;;10.20;75.38;97423.84;4947469;28;20222;-58
2022/12/06 10:22:51;;;;;;;21.13;12.32;;;;;;;10.16;76.47;97424.91;4947033;28;20537;-56
2022/12/06 10:25:30;;;;;;;18.98;12.18;;;;;;;10.11;76.53;97426.00;4947307;28;20051;-56
2022/12/06 10:28:13;;;;;;;19.48;11.50;;;;;;;10.23;74.74;97417.59;4947100;28;20043;-56
2022/12/06 10:30:54;;;;;;;19.80;12.82;;;;;;;10.18;76.11;97419.84;4947238;28;20128;-56
2022/12/06 10:33:44;;;;;;;23.83;13.20;;;;;;;10.23;76.49;97423.13;4947047;28;20059;-56
2022/12/06 10:36:18;;;;;;;19.52;12.35;;;;;;;9.91;75.95;97349.53;4947038;28;20166;-57
2022/12/06 10:38:50;;;;;;;20.70;11.35;;;;;;;10.17;75.28;97419.03;4947075;28;20138;-55
2022/12/06 10:41:32;;;;;;;18.70;11.60;;;;;;;10.27;74.72;97407.41;4946384;28;20146;-58
2022/12/06 10:44:26;;;;;;;20.92;12.82;;;;;;;10.31;74.83;97407.47;4961125;28;20664;-56
2022/12/06 10:47:05;;;;;;;20.52;12.00;;;;;;;10.13;74.72;97407.06;4945401;29;20078;-59
2022/12/06 10:49:38;;;;;;;25.00;14.00;;;;;;;10.03;75.67;97402.03;4946984;28;21227;-56
2022/12/06 10:52:30;;;;;;;26.47;15.03;;;;;;;9.98;76.20;97388.47;4946484;28;20051;-59
2022/12/06 10:55:14;;;;;;;27.58;16.17;;;;;;;10.05;75.27;97391.41;4946951;28;20566;-56
2022/12/06 10:57:52;;;;;;;34.67;18.40;;;;;;;9.99;75.35;97384.53;4946401;28;20600;-57
2022/12/06 11:00:24;;;;;;;25.80;14.25;;;;;;;9.75;74.98;97342.44;4946178;28;20086;-56
2022/12/06 11:03:15;;;;;;;27.20;13.93;;;;;;;9.51;75.36;97271.50;4946539;28;20051;-58
2022/12/06 11:05:53;;;;;;;26.42;14.55;;;;;;;10.17;74.65;97368.38;4946454;29;20047;-55
2022/12/06 11:08:28;;;;;;;26.30;15.27;;;;;;;10.18;75.45;97359.72;4945988;28;20117;-62
2022/12/06 11:27:14;;;;;;;22.80;14.20;;;;;;;11.70;67.48;97369.22;5100641;27;20390;-64
2022/12/06 11:29:43;;;;;;;21.17;13.98;;;;;;;11.83;68.66;97329.03;5099871;28;20437;-60
2022/12/06 11:32:12;;;;;;;18.63;13.07;;;;;;;10.26;67.71;97076.34;5099283;28;20794;-59
2022/12/06 11:34:42;;;;;;;20.27;12.60;;;;;;;11.84;66.46;97325.06;5100542;28;20053;-58
2022/12/06 11:37:15;;;;;;;18.38;11.80;;;;;;;11.68;66.45;97327.19;5100786;28;20143;-60
2022/12/06 11:39:43;;;;;;;23.58;13.65;;;;;;;11.78;67.32;97321.00;5100933;28;20075;-62
2022/12/06 11:42:13;;;;;;;18.67;12.20;;;;;;;11.86;67.62;97319.94;5099291;28;20461;-60
2022/12/06 11:44:44;;;;;;;19.75;12.48;;;;;;;11.82;66.52;97321.88;5099718;28;20592;-60
2022/12/06 11:47:26;;;;;;;21.08;13.65;;;;;;;11.97;66.03;97334.81;5100664;28;20059;-60
2022/12/06 11:49:55;;;;;;;16.90;10.88;;;;;;;11.57;65.74;97276.25;5100685;28;21251;-60
2022/12/06 11:52:37;;;;;;;21.38;11.63;;;;;;;11.63;65.80;97303.31;5098712;28;20051;-63
2022/12/06 11:55:14;;;;;;;20.70;12.50;;;;;;;11.58;66.92;97305.56;5100680;28;20127;-63
2022/12/06 11:58:10;;;;;;;16.80;10.68;;;;;;;11.50;66.09;97310.22;5101074;28;20047;-62
2022/12/06 12:00:55;;;;;;;17.27;10.60;;;;;;;11.49;66.73;97307.81;5094325;28;20144;-63
2022/12/06 12:03:28;;;;;;;19.27;12.98;;;;;;;11.53;68.38;97308.66;5099443;28;20606;-63
2022/12/06 12:06:08;;;;;;;20.27;12.02;;;;;;;11.48;66.73;97311.72;5100362;28;20063;-64
2022/12/06 12:08:36;;;;;;;17.05;11.32;;;;;;;11.45;66.34;97287.50;5099451;28;20626;-63
2022/12/06 12:11:03;;;;;;;22.15;14.52;;;;;;;9.20;67.48;96943.44;5099968;28;20055;-63
2022/12/06 12:14:04;;;;;;;21.52;13.25;;;;;;;11.51;68.32;97300.69;5100702;28;20059;-63